sensor_id;sensor_type;location;lat;lon;timestamp;P1;durP1;ratioP1;P2;durP2;ratioP2
31087;SDS011;17745;55.914;37.554;2023-03-21T00:02:13;15.80;;;7.40;;
31087;SDS011;17745;55.914;37.554;2023-03-21T00:04:42;19.37;;;8.80;;
31087;SDS011;17745;55.914;37.554;2023-03-21T00:07:15;21.80;;;8.68;;
31087;SDS011;17745;55.914;37.554;2023-03-21T00:09:45;14.38;;;7.93;;
31087;SDS011;17745;55.914;37.554;2023-03-21T00:12:15;18.05;;;8.77;;
31087;SDS011;17745;55.914;37.554;2023-03-21T00:14:46;17.17;;;7.53;;
31087;SDS011;17745;55.914;37.554;2023-03-21T00:17:14;17.65;;;7.87;;
31087;SDS011;17745;55.914;37.554;2023-03-21T00:19:42;16.67;;;8.23;;
31087;SDS011;17745;55.914;37.554;2023-03-21T00:22:11;17.02;;;7.57;;
31087;SDS011;17745;55.914;37.554;2023-03-21T00:24:39;15.45;;;8.02;;
31087;SDS011;17745;55.914;37.554;2023-03-21T00:27:13;13.90;;;7.20;;
31087;SDS011;17745;55.914;37.554;2023-03-21T00:29:48;14.93;;;7.68;;
31087;SDS011;17745;55.914;37.554;2023-03-21T00:32:19;14.38;;;7.37;;
31087;SDS011;17745;55.914;37.554;2023-03-21T00:34:47;18.27;;;7.95;;
31087;SDS011;17745;55.914;37.554;2023-03-21T00:37:18;13.27;;;6.82;;
31087;SDS011;17745;55.914;37.554;2023-03-21T00:39:46;13.73;;;7.25;;
31087;SDS011;17745;55.914;37.554;2023-03-21T00:42:16;14.15;;;6.32;;
31087;SDS011;17745;55.914;37.554;2023-03-21T00:44:45;22.65;;;7.93;;
31087;SDS011;17745;55.914;37.554;2023-03-21T00:50:10;16.67;;;10.40;;
31087;SDS011;17745;55.914;37.554;2023-03-21T00:52:38;16.55;;;8.48;;
31087;SDS011;17745;55.914;37.554;2023-03-21T00:55:08;14.13;;;7.45;;
31087;SDS011;17745;55.914;37.554;2023-03-21T00:57:50;22.67;;;8.07;;
31087;SDS011;17745;55.914;37.554;2023-03-21T01:00:20;16.42;;;6.82;;
31087;SDS011;17745;55.914;37.554;2023-03-21T01:02:51;14.30;;;6.18;;
31087;SDS011;17745;55.914;37.554;2023-03-21T01:05:23;19.62;;;7.30;;
31087;SDS011;17745;55.914;37.554;2023-03-21T01:08:08;19.65;;;7.75;;
31087;SDS011;17745;55.914;37.554;2023-03-21T01:10:45;16.15;;;7.50;;
31087;SDS011;17745;55.914;37.554;2023-03-21T01:13:29;18.20;;;8.00;;
31087;SDS011;17745;55.914;37.554;2023-03-21T01:16:05;16.67;;;6.80;;
31087;SDS011;17745;55.914;37.554;2023-03-21T01:18:38;14.32;;;7.40;;
31087;SDS011;17745;55.914;37.554;2023-03-21T01:21:15;19.15;;;7.35;;
31087;SDS011;17745;55.914;37.554;2023-03-21T01:23:49;15.88;;;7.57;;
31087;SDS011;17745;55.914;37.554;2023-03-21T01:26:20;21.33;;;7.35;;
31087;SDS011;17745;55.914;37.554;2023-03-21T01:29:01;18.10;;;7.37;;
31087;SDS011;17745;55.914;37.554;2023-03-21T01:31:33;14.68;;;7.10;;
31087;SDS011;17745;55.914;37.554;2023-03-21T01:34:05;12.88;;;6.72;;
31087;SDS011;17745;55.914;37.554;2023-03-21T01:36:34;17.23;;;6.68;;
31087;SDS011;17745;55.914;37.554;2023-03-21T01:39:10;16.73;;;6.35;;
31087;SDS011;17745;55.914;37.554;2023-03-21T01:41:47;13.60;;;6.32;;
31087;SDS011;17745;55.914;37.554;2023-03-21T01:47:26;14.10;;;6.80;;
31087;SDS011;17745;55.914;37.554;2023-03-21T01:49:57;21.08;;;7.12;;
31087;SDS011;17745;55.914;37.554;2023-03-21T01:52:44;14.30;;;7.40;;
31087;SDS011;17745;55.914;37.554;2023-03-21T01:55:18;15.82;;;6.47;;
31087;SDS011;17745;55.914;37.554;2023-03-21T01:57:50;13.48;;;6.72;;
31087;SDS011;17745;55.914;37.554;2023-03-21T02:00:26;17.52;;;8.57;;
31087;SDS011;17745;55.914;37.554;2023-03-21T02:03:01;13.10;;;6.72;;
31087;SDS011;17745;55.914;37.554;2023-03-21T02:05:37;12.52;;;6.60;;
31087;SDS011;17745;55.914;37.554;2023-03-21T02:08:19;12.15;;;7.15;;
31087;SDS011;17745;55.914;37.554;2023-03-21T02:10:48;18.20;;;7.28;;
31087;SDS011;17745;55.914;37.554;2023-03-21T02:13:20;11.88;;;7.20;;
31087;SDS011;17745;55.914;37.554;2023-03-21T02:15:50;11.82;;;6.82;;
31087;SDS011;17745;55.914;37.554;2023-03-21T02:18:33;15.63;;;6.87;;
31087;SDS011;17745;55.914;37.554;2023-03-21T02:21:21;19.42;;;6.97;;
31087;SDS011;17745;55.914;37.554;2023-03-21T02:27:13;12.70;;;6.65;;
31087;SDS011;17745;55.914;37.554;2023-03-21T02:29:52;16.58;;;7.35;;
31087;SDS011;17745;55.914;37.554;2023-03-21T02:35:53;14.32;;;6.25;;
31087;SDS011;17745;55.914;37.554;2023-03-21T02:38:44;18.77;;;7.82;;
31087;SDS011;17745;55.914;37.554;2023-03-21T02:41:25;16.00;;;7.22;;
31087;SDS011;17745;55.914;37.554;2023-03-21T02:44:04;15.05;;;7.47;;
31087;SDS011;17745;55.914;37.554;2023-03-21T02:46:41;14.30;;;6.90;;
31087;SDS011;17745;55.914;37.554;2023-03-21T02:51:47;13.05;;;6.10;;
31087;SDS011;17745;55.914;37.554;2023-03-21T02:54:21;15.88;;;7.03;;
31087;SDS011;17745;55.914;37.554;2023-03-21T02:56:52;13.95;;;6.37;;
31087;SDS011;17745;55.914;37.554;2023-03-21T02:59:24;13.73;;;6.72;;
31087;SDS011;17745;55.914;37.554;2023-03-21T03:01:56;12.55;;;5.97;;
31087;SDS011;17745;55.914;37.554;2023-03-21T03:04:26;14.15;;;6.62;;
31087;SDS011;17745;55.914;37.554;2023-03-21T03:07:02;16.48;;;6.97;;
31087;SDS011;17745;55.914;37.554;2023-03-21T03:09:45;12.77;;;5.95;;
31087;SDS011;17745;55.914;37.554;2023-03-21T03:12:30;18.37;;;6.75;;
31087;SDS011;17745;55.914;37.554;2023-03-21T03:15:07;13.45;;;6.93;;
31087;SDS011;17745;55.914;37.554;2023-03-21T03:17:48;23.27;;;7.47;;
31087;SDS011;17745;55.914;37.554;2023-03-21T03:20:26;14.20;;;6.55;;
31087;SDS011;17745;55.914;37.554;2023-03-21T03:23:04;14.70;;;6.97;;
31087;SDS011;17745;55.914;37.554;2023-03-21T03:25:43;12.02;;;6.60;;
31087;SDS011;17745;55.914;37.554;2023-03-21T03:28:19;16.05;;;7.55;;
31087;SDS011;17745;55.914;37.554;2023-03-21T03:30:52;12.45;;;6.25;;
31087;SDS011;17745;55.914;37.554;2023-03-21T03:33:24;15.57;;;6.28;;
31087;SDS011;17745;55.914;37.554;2023-03-21T03:35:53;14.55;;;6.90;;
31087;SDS011;17745;55.914;37.554;2023-03-21T03:38:24;18.62;;;7.45;;
31087;SDS011;17745;55.914;37.554;2023-03-21T03:41:00;19.77;;;6.78;;
31087;SDS011;17745;55.914;37.554;2023-03-21T03:43:42;11.15;;;5.87;;
31087;SDS011;17745;55.914;37.554;2023-03-21T03:46:21;13.38;;;6.70;;
31087;SDS011;17745;55.914;37.554;2023-03-21T03:49:01;15.20;;;7.32;;
31087;SDS011;17745;55.914;37.554;2023-03-21T03:51:40;13.27;;;6.25;;
31087;SDS011;17745;55.914;37.554;2023-03-21T03:54:15;16.58;;;7.30;;
31087;SDS011;17745;55.914;37.554;2023-03-21T03:56:51;13.98;;;6.78;;
31087;SDS011;17745;55.914;37.554;2023-03-21T03:59:21;14.02;;;7.55;;
31087;SDS011;17745;55.914;37.554;2023-03-21T04:01:52;13.13;;;6.97;;
31087;SDS011;17745;55.914;37.554;2023-03-21T04:04:27;22.13;;;7.45;;
31087;SDS011;17745;55.914;37.554;2023-03-21T04:06:58;13.93;;;7.30;;
31087;SDS011;17745;55.914;37.554;2023-03-21T04:09:32;22.98;;;7.50;;
31087;SDS011;17745;55.914;37.554;2023-03-21T04:12:11;14.90;;;7.10;;
31087;SDS011;17745;55.914;37.554;2023-03-21T04:14:40;16.37;;;7.97;;
31087;SDS011;17745;55.914;37.554;2023-03-21T04:17:10;20.12;;;7.97;;
31087;SDS011;17745;55.914;37.554;2023-03-21T04:19:46;20.25;;;7.70;;
31087;SDS011;17745;55.914;37.554;2023-03-21T04:22:18;22.17;;;7.65;;
31087;SDS011;17745;55.914;37.554;2023-03-21T04:24:49;17.27;;;7.45;;
31087;SDS011;17745;55.914;37.554;2023-03-21T04:27:20;15.40;;;7.10;;
31087;SDS011;17745;55.914;37.554;2023-03-21T04:30:02;21.33;;;7.43;;
31087;SDS011;17745;55.914;37.554;2023-03-21T04:32:36;16.48;;;7.37;;
31087;SDS011;17745;55.914;37.554;2023-03-21T04:35:13;12.40;;;6.45;;
31087;SDS011;17745;55.914;37.554;2023-03-21T04:37:50;18.00;;;8.10;;
31087;SDS011;17745;55.914;37.554;2023-03-21T04:40:18;16.15;;;7.90;;
31087;SDS011;17745;55.914;37.554;2023-03-21T04:42:49;13.07;;;7.43;;
31087;SDS011;17745;55.914;37.554;2023-03-21T04:45:25;21.30;;;7.00;;
31087;SDS011;17745;55.914;37.554;2023-03-21T04:47:54;21.10;;;8.68;;
31087;SDS011;17745;55.914;37.554;2023-03-21T04:50:22;25.58;;;9.20;;
31087;SDS011;17745;55.914;37.554;2023-03-21T04:52:50;24.70;;;10.38;;
31087;SDS011;17745;55.914;37.554;2023-03-21T04:55:18;30.40;;;10.65;;
31087;SDS011;17745;55.914;37.554;2023-03-21T04:57:47;17.73;;;9.13;;
31087;SDS011;17745;55.914;37.554;2023-03-21T05:00:20;23.60;;;8.93;;
31087;SDS011;17745;55.914;37.554;2023-03-21T05:02:53;31.73;;;9.85;;
31087;SDS011;17745;55.914;37.554;2023-03-21T05:05:22;27.85;;;8.80;;
31087;SDS011;17745;55.914;37.554;2023-03-21T05:07:50;23.10;;;9.05;;
31087;SDS011;17745;55.914;37.554;2023-03-21T05:10:18;18.25;;;9.10;;
31087;SDS011;17745;55.914;37.554;2023-03-21T05:12:48;15.98;;;8.35;;
31087;SDS011;17745;55.914;37.554;2023-03-21T05:15:16;15.50;;;7.97;;
31087;SDS011;17745;55.914;37.554;2023-03-21T05:17:44;17.98;;;7.50;;
31087;SDS011;17745;55.914;37.554;2023-03-21T05:20:18;18.85;;;7.60;;
31087;SDS011;17745;55.914;37.554;2023-03-21T05:22:50;20.08;;;8.68;;
31087;SDS011;17745;55.914;37.554;2023-03-21T05:25:18;19.27;;;8.60;;
31087;SDS011;17745;55.914;37.554;2023-03-21T05:28:01;16.80;;;8.43;;
31087;SDS011;17745;55.914;37.554;2023-03-21T05:30:29;24.60;;;7.87;;
31087;SDS011;17745;55.914;37.554;2023-03-21T05:32:57;14.15;;;6.93;;
31087;SDS011;17745;55.914;37.554;2023-03-21T05:35:26;18.37;;;7.40;;
31087;SDS011;17745;55.914;37.554;2023-03-21T05:37:55;14.98;;;7.80;;
31087;SDS011;17745;55.914;37.554;2023-03-21T05:40:23;13.85;;;7.57;;
31087;SDS011;17745;55.914;37.554;2023-03-21T05:42:51;16.75;;;7.47;;
31087;SDS011;17745;55.914;37.554;2023-03-21T05:45:23;16.52;;;9.55;;
31087;SDS011;17745;55.914;37.554;2023-03-21T05:47:51;24.85;;;7.85;;
31087;SDS011;17745;55.914;37.554;2023-03-21T05:50:19;18.35;;;7.80;;
31087;SDS011;17745;55.914;37.554;2023-03-21T05:52:48;21.02;;;9.02;;
31087;SDS011;17745;55.914;37.554;2023-03-21T05:55:22;20.65;;;9.48;;
31087;SDS011;17745;55.914;37.554;2023-03-21T05:57:50;22.73;;;11.10;;
31087;SDS011;17745;55.914;37.554;2023-03-21T06:00:19;25.92;;;10.30;;
31087;SDS011;17745;55.914;37.554;2023-03-21T06:02:52;22.92;;;8.75;;
31087;SDS011;17745;55.914;37.554;2023-03-21T06:05:21;20.65;;;9.35;;
31087;SDS011;17745;55.914;37.554;2023-03-21T06:07:58;21.55;;;8.20;;
31087;SDS011;17745;55.914;37.554;2023-03-21T06:10:33;24.58;;;10.32;;
31087;SDS011;17745;55.914;37.554;2023-03-21T06:13:01;24.08;;;10.30;;
31087;SDS011;17745;55.914;37.554;2023-03-21T06:15:34;23.95;;;10.77;;
31087;SDS011;17745;55.914;37.554;2023-03-21T06:18:04;18.52;;;9.20;;
31087;SDS011;17745;55.914;37.554;2023-03-21T06:20:35;22.65;;;10.00;;
31087;SDS011;17745;55.914;37.554;2023-03-21T06:23:07;26.27;;;10.27;;
31087;SDS011;17745;55.914;37.554;2023-03-21T06:25:37;19.50;;;9.02;;
31087;SDS011;17745;55.914;37.554;2023-03-21T06:28:06;20.48;;;8.90;;
31087;SDS011;17745;55.914;37.554;2023-03-21T06:30:39;15.13;;;8.82;;
31087;SDS011;17745;55.914;37.554;2023-03-21T06:33:07;20.20;;;8.82;;
31087;SDS011;17745;55.914;37.554;2023-03-21T06:35:35;13.48;;;8.65;;
31087;SDS011;17745;55.914;37.554;2023-03-21T06:38:05;18.70;;;8.63;;
31087;SDS011;17745;55.914;37.554;2023-03-21T06:40:37;20.92;;;8.40;;
31087;SDS011;17745;55.914;37.554;2023-03-21T06:43:05;21.23;;;9.10;;
31087;SDS011;17745;55.914;37.554;2023-03-21T06:45:34;19.10;;;9.30;;
31087;SDS011;17745;55.914;37.554;2023-03-21T06:48:04;22.95;;;10.82;;
31087;SDS011;17745;55.914;37.554;2023-03-21T06:50:33;17.85;;;9.27;;
31087;SDS011;17745;55.914;37.554;2023-03-21T06:53:14;15.93;;;9.93;;
31087;SDS011;17745;55.914;37.554;2023-03-21T06:55:47;19.73;;;10.07;;
31087;SDS011;17745;55.914;37.554;2023-03-21T06:58:15;30.92;;;12.52;;
31087;SDS011;17745;55.914;37.554;2023-03-21T07:00:44;27.00;;;12.73;;
31087;SDS011;17745;55.914;37.554;2023-03-21T07:03:13;27.42;;;13.73;;
31087;SDS011;17745;55.914;37.554;2023-03-21T07:05:42;26.58;;;14.20;;
31087;SDS011;17745;55.914;37.554;2023-03-21T07:08:12;30.58;;;12.80;;
31087;SDS011;17745;55.914;37.554;2023-03-21T07:10:41;24.48;;;11.80;;
31087;SDS011;17745;55.914;37.554;2023-03-21T07:13:22;21.98;;;11.75;;
31087;SDS011;17745;55.914;37.554;2023-03-21T07:15:51;22.10;;;10.05;;
31087;SDS011;17745;55.914;37.554;2023-03-21T07:18:20;20.42;;;9.70;;
31087;SDS011;17745;55.914;37.554;2023-03-21T07:20:51;15.38;;;8.70;;
31087;SDS011;17745;55.914;37.554;2023-03-21T07:23:20;21.98;;;8.68;;
31087;SDS011;17745;55.914;37.554;2023-03-21T07:25:50;19.55;;;9.25;;
31087;SDS011;17745;55.914;37.554;2023-03-21T07:30:53;13.95;;;8.18;;
31087;SDS011;17745;55.914;37.554;2023-03-21T07:33:43;19.08;;;9.05;;
31087;SDS011;17745;55.914;37.554;2023-03-21T07:36:12;14.73;;;6.78;;
31087;SDS011;17745;55.914;37.554;2023-03-21T07:38:41;16.05;;;6.97;;
31087;SDS011;17745;55.914;37.554;2023-03-21T07:41:09;14.70;;;7.57;;
31087;SDS011;17745;55.914;37.554;2023-03-21T07:43:36;13.15;;;6.12;;
31087;SDS011;17745;55.914;37.554;2023-03-21T07:46:07;13.48;;;7.07;;
31087;SDS011;17745;55.914;37.554;2023-03-21T07:48:35;13.98;;;6.78;;
31087;SDS011;17745;55.914;37.554;2023-03-21T07:51:14;14.13;;;8.15;;
31087;SDS011;17745;55.914;37.554;2023-03-21T07:53:44;16.42;;;9.25;;
31087;SDS011;17745;55.914;37.554;2023-03-21T07:56:22;10.40;;;7.12;;
31087;SDS011;17745;55.914;37.554;2023-03-21T07:58:54;15.13;;;7.93;;
31087;SDS011;17745;55.914;37.554;2023-03-21T08:01:24;18.65;;;7.87;;
31087;SDS011;17745;55.914;37.554;2023-03-21T08:04:16;15.77;;;7.50;;
31087;SDS011;17745;55.914;37.554;2023-03-21T08:06:58;12.20;;;7.18;;
31087;SDS011;17745;55.914;37.554;2023-03-21T08:09:43;16.85;;;8.25;;
31087;SDS011;17745;55.914;37.554;2023-03-21T08:12:18;14.95;;;8.20;;
31087;SDS011;17745;55.914;37.554;2023-03-21T08:14:50;14.20;;;7.18;;
31087;SDS011;17745;55.914;37.554;2023-03-21T08:17:21;13.93;;;7.40;;
31087;SDS011;17745;55.914;37.554;2023-03-21T08:19:57;14.93;;;7.55;;
31087;SDS011;17745;55.914;37.554;2023-03-21T08:22:29;16.20;;;7.60;;
31087;SDS011;17745;55.914;37.554;2023-03-21T08:25:01;15.48;;;7.95;;
31087;SDS011;17745;55.914;37.554;2023-03-21T08:27:30;13.68;;;7.30;;
31087;SDS011;17745;55.914;37.554;2023-03-21T08:30:14;13.88;;;7.28;;
31087;SDS011;17745;55.914;37.554;2023-03-21T08:33:04;14.55;;;6.57;;
31087;SDS011;17745;55.914;37.554;2023-03-21T08:35:35;11.60;;;6.55;;
31087;SDS011;17745;55.914;37.554;2023-03-21T08:38:08;10.63;;;6.32;;
31087;SDS011;17745;55.914;37.554;2023-03-21T08:40:43;14.77;;;6.20;;
31087;SDS011;17745;55.914;37.554;2023-03-21T08:43:13;15.23;;;5.53;;
31087;SDS011;17745;55.914;37.554;2023-03-21T08:45:49;10.30;;;5.28;;
31087;SDS011;17745;55.914;37.554;2023-03-21T08:48:26;9.02;;;4.70;;
31087;SDS011;17745;55.914;37.554;2023-03-21T08:51:01;11.80;;;4.85;;
31087;SDS011;17745;55.914;37.554;2023-03-21T08:53:46;9.13;;;5.82;;
31087;SDS011;17745;55.914;37.554;2023-03-21T08:56:17;13.02;;;5.82;;
31087;SDS011;17745;55.914;37.554;2023-03-21T08:58:45;10.02;;;5.97;;
31087;SDS011;17745;55.914;37.554;2023-03-21T09:01:20;15.88;;;5.75;;
31087;SDS011;17745;55.914;37.554;2023-03-21T09:03:48;8.40;;;5.35;;
31087;SDS011;17745;55.914;37.554;2023-03-21T09:09:11;8.75;;;5.50;;
31087;SDS011;17745;55.914;37.554;2023-03-21T09:11:45;10.50;;;6.40;;
31087;SDS011;17745;55.914;37.554;2023-03-21T09:14:23;11.77;;;6.28;;
31087;SDS011;17745;55.914;37.554;2023-03-21T09:16:51;10.18;;;5.43;;
31087;SDS011;17745;55.914;37.554;2023-03-21T09:19:19;9.82;;;5.28;;
31087;SDS011;17745;55.914;37.554;2023-03-21T09:21:56;10.32;;;5.60;;
31087;SDS011;17745;55.914;37.554;2023-03-21T09:24:28;13.20;;;5.43;;
31087;SDS011;17745;55.914;37.554;2023-03-21T09:27:03;13.73;;;5.90;;
31087;SDS011;17745;55.914;37.554;2023-03-21T09:32:04;9.90;;;6.00;;
31087;SDS011;17745;55.914;37.554;2023-03-21T09:34:40;10.15;;;6.57;;
31087;SDS011;17745;55.914;37.554;2023-03-21T09:37:13;11.07;;;6.70;;
31087;SDS011;17745;55.914;37.554;2023-03-21T09:39:42;9.52;;;6.20;;
31087;SDS011;17745;55.914;37.554;2023-03-21T09:45:07;9.80;;;6.50;;
31087;SDS011;17745;55.914;37.554;2023-03-21T09:47:43;11.52;;;6.37;;
31087;SDS011;17745;55.914;37.554;2023-03-21T09:50:19;9.82;;;6.05;;
31087;SDS011;17745;55.914;37.554;2023-03-21T09:52:53;11.55;;;6.15;;
31087;SDS011;17745;55.914;37.554;2023-03-21T09:58:21;16.37;;;7.57;;
31087;SDS011;17745;55.914;37.554;2023-03-21T10:00:58;9.27;;;6.60;;
31087;SDS011;17745;55.914;37.554;2023-03-21T10:03:47;11.23;;;6.93;;
31087;SDS011;17745;55.914;37.554;2023-03-21T10:06:16;11.35;;;7.10;;
31087;SDS011;17745;55.914;37.554;2023-03-21T10:08:46;12.68;;;7.20;;
31087;SDS011;17745;55.914;37.554;2023-03-21T10:11:17;12.50;;;7.28;;
31087;SDS011;17745;55.914;37.554;2023-03-21T10:13:49;13.55;;;8.13;;
31087;SDS011;17745;55.914;37.554;2023-03-21T10:16:20;11.77;;;7.53;;
31087;SDS011;17745;55.914;37.554;2023-03-21T10:18:53;15.30;;;7.62;;
31087;SDS011;17745;55.914;37.554;2023-03-21T10:21:22;12.73;;;8.05;;
31087;SDS011;17745;55.914;37.554;2023-03-21T10:23:56;13.57;;;8.10;;
31087;SDS011;17745;55.914;37.554;2023-03-21T10:26:29;12.40;;;7.18;;
31087;SDS011;17745;55.914;37.554;2023-03-21T10:29:00;15.13;;;8.35;;
31087;SDS011;17745;55.914;37.554;2023-03-21T10:31:30;12.27;;;7.90;;
31087;SDS011;17745;55.914;37.554;2023-03-21T10:34:02;13.27;;;7.53;;
31087;SDS011;17745;55.914;37.554;2023-03-21T10:36:38;12.82;;;7.82;;
31087;SDS011;17745;55.914;37.554;2023-03-21T10:39:07;13.77;;;7.25;;
31087;SDS011;17745;55.914;37.554;2023-03-21T10:41:49;12.75;;;7.57;;
31087;SDS011;17745;55.914;37.554;2023-03-21T10:44:18;12.98;;;7.18;;
31087;SDS011;17745;55.914;37.554;2023-03-21T10:46:50;12.85;;;7.43;;
31087;SDS011;17745;55.914;37.554;2023-03-21T10:49:20;16.60;;;8.50;;
31087;SDS011;17745;55.914;37.554;2023-03-21T10:52:00;14.43;;;7.57;;
31087;SDS011;17745;55.914;37.554;2023-03-21T10:54:34;16.70;;;7.25;;
31087;SDS011;17745;55.914;37.554;2023-03-21T10:57:10;11.93;;;7.50;;
31087;SDS011;17745;55.914;37.554;2023-03-21T10:59:50;13.62;;;7.25;;
31087;SDS011;17745;55.914;37.554;2023-03-21T11:02:26;12.10;;;6.62;;
31087;SDS011;17745;55.914;37.554;2023-03-21T11:05:01;11.85;;;7.40;;
31087;SDS011;17745;55.914;37.554;2023-03-21T11:08:01;12.32;;;7.28;;
31087;SDS011;17745;55.914;37.554;2023-03-21T11:10:50;14.02;;;7.50;;
31087;SDS011;17745;55.914;37.554;2023-03-21T11:13:36;11.00;;;7.35;;
31087;SDS011;17745;55.914;37.554;2023-03-21T11:16:10;10.60;;;6.68;;
31087;SDS011;17745;55.914;37.554;2023-03-21T11:18:48;11.23;;;6.43;;
31087;SDS011;17745;55.914;37.554;2023-03-21T11:21:25;13.75;;;6.30;;
31087;SDS011;17745;55.914;37.554;2023-03-21T11:24:03;10.18;;;5.40;;
31087;SDS011;17745;55.914;37.554;2023-03-21T11:26:34;10.25;;;5.10;;
31087;SDS011;17745;55.914;37.554;2023-03-21T11:29:33;6.90;;;4.10;;
31087;SDS011;17745;55.914;37.554;2023-03-21T11:32:09;8.95;;;4.90;;
31087;SDS011;17745;55.914;37.554;2023-03-21T11:34:41;12.52;;;5.72;;
31087;SDS011;17745;55.914;37.554;2023-03-21T11:37:24;12.75;;;6.10;;
31087;SDS011;17745;55.914;37.554;2023-03-21T11:40:04;9.07;;;4.57;;
31087;SDS011;17745;55.914;37.554;2023-03-21T11:45:31;9.75;;;4.85;;
31087;SDS011;17745;55.914;37.554;2023-03-21T11:48:26;8.40;;;4.50;;
31087;SDS011;17745;55.914;37.554;2023-03-21T11:51:02;6.93;;;4.03;;
31087;SDS011;17745;55.914;37.554;2023-03-21T11:58:28;9.07;;;5.15;;
31087;SDS011;17745;55.914;37.554;2023-03-21T12:09:48;13.68;;;4.93;;
31087;SDS011;17745;55.914;37.554;2023-03-21T12:13:12;8.80;;;4.55;;
31087;SDS011;17745;55.914;37.554;2023-03-21T12:15:58;9.10;;;4.60;;
31087;SDS011;17745;55.914;37.554;2023-03-21T12:18:48;9.40;;;4.57;;
31087;SDS011;17745;55.914;37.554;2023-03-21T12:21:42;13.18;;;5.07;;
31087;SDS011;17745;55.914;37.554;2023-03-21T12:24:32;8.60;;;4.20;;
31087;SDS011;17745;55.914;37.554;2023-03-21T12:27:13;7.70;;;3.83;;
31087;SDS011;17745;55.914;37.554;2023-03-21T12:30:02;14.00;;;4.53;;
31087;SDS011;17745;55.914;37.554;2023-03-21T12:35:53;8.25;;;4.50;;
31087;SDS011;17745;55.914;37.554;2023-03-21T12:38:56;7.07;;;4.37;;
31087;SDS011;17745;55.914;37.554;2023-03-21T12:44:48;10.27;;;4.50;;
31087;SDS011;17745;55.914;37.554;2023-03-21T12:47:44;13.00;;;4.57;;
31087;SDS011;17745;55.914;37.554;2023-03-21T12:50:22;12.32;;;4.10;;
31087;SDS011;17745;55.914;37.554;2023-03-21T12:53:22;11.75;;;4.85;;
31087;SDS011;17745;55.914;37.554;2023-03-21T12:55:57;8.80;;;4.93;;
31087;SDS011;17745;55.914;37.554;2023-03-21T12:59:04;10.20;;;4.93;;
31087;SDS011;17745;55.914;37.554;2023-03-21T13:04:54;10.35;;;4.55;;
31087;SDS011;17745;55.914;37.554;2023-03-21T13:07:30;9.55;;;4.37;;
31087;SDS011;17745;55.914;37.554;2023-03-21T13:10:15;10.65;;;4.80;;
31087;SDS011;17745;55.914;37.554;2023-03-21T13:12:57;10.00;;;4.82;;
31087;SDS011;17745;55.914;37.554;2023-03-21T13:15:44;8.88;;;4.68;;
31087;SDS011;17745;55.914;37.554;2023-03-21T13:18:28;9.50;;;4.45;;
31087;SDS011;17745;55.914;37.554;2023-03-21T13:21:21;12.30;;;4.45;;
31087;SDS011;17745;55.914;37.554;2023-03-21T13:23:59;9.38;;;4.65;;
31087;SDS011;17745;55.914;37.554;2023-03-21T13:26:31;6.70;;;4.28;;
31087;SDS011;17745;55.914;37.554;2023-03-21T13:29:13;13.82;;;4.87;;
31087;SDS011;17745;55.914;37.554;2023-03-21T13:31:48;8.57;;;4.97;;
31087;SDS011;17745;55.914;37.554;2023-03-21T13:34:19;13.43;;;4.82;;
31087;SDS011;17745;55.914;37.554;2023-03-21T13:36:50;16.55;;;4.82;;
31087;SDS011;17745;55.914;37.554;2023-03-21T13:39:24;9.38;;;4.43;;
31087;SDS011;17745;55.914;37.554;2023-03-21T13:42:01;8.80;;;4.15;;
31087;SDS011;17745;55.914;37.554;2023-03-21T13:44:37;11.30;;;4.82;;
31087;SDS011;17745;55.914;37.554;2023-03-21T13:47:23;9.40;;;5.45;;
31087;SDS011;17745;55.914;37.554;2023-03-21T13:50:23;12.35;;;5.32;;
31087;SDS011;17745;55.914;37.554;2023-03-21T13:53:17;10.68;;;5.65;;
31087;SDS011;17745;55.914;37.554;2023-03-21T13:56:22;9.88;;;5.53;;
31087;SDS011;17745;55.914;37.554;2023-03-21T13:59:37;9.02;;;4.97;;
31087;SDS011;17745;55.914;37.554;2023-03-21T14:02:22;8.95;;;4.80;;
31087;SDS011;17745;55.914;37.554;2023-03-21T14:04:59;9.80;;;5.07;;
31087;SDS011;17745;55.914;37.554;2023-03-21T14:07:55;9.65;;;5.97;;
31087;SDS011;17745;55.914;37.554;2023-03-21T14:10:27;8.80;;;4.53;;
31087;SDS011;17745;55.914;37.554;2023-03-21T14:13:00;8.93;;;3.97;;
31087;SDS011;17745;55.914;37.554;2023-03-21T14:15:35;9.60;;;4.95;;
31087;SDS011;17745;55.914;37.554;2023-03-21T14:18:12;16.15;;;5.82;;
31087;SDS011;17745;55.914;37.554;2023-03-21T14:20:50;8.93;;;5.00;;
31087;SDS011;17745;55.914;37.554;2023-03-21T14:23:19;10.77;;;4.57;;
31087;SDS011;17745;55.914;37.554;2023-03-21T14:25:51;13.82;;;4.62;;
31087;SDS011;17745;55.914;37.554;2023-03-21T14:28:20;11.80;;;4.57;;
31087;SDS011;17745;55.914;37.554;2023-03-21T14:30:53;9.65;;;4.20;;
31087;SDS011;17745;55.914;37.554;2023-03-21T14:33:25;9.40;;;4.20;;
31087;SDS011;17745;55.914;37.554;2023-03-21T14:36:04;10.27;;;4.62;;
31087;SDS011;17745;55.914;37.554;2023-03-21T14:38:38;9.50;;;4.37;;
31087;SDS011;17745;55.914;37.554;2023-03-21T14:41:21;12.18;;;4.05;;
31087;SDS011;17745;55.914;37.554;2023-03-21T14:44:10;10.73;;;4.55;;
31087;SDS011;17745;55.914;37.554;2023-03-21T14:46:41;9.77;;;5.20;;
31087;SDS011;17745;55.914;37.554;2023-03-21T14:49:11;7.87;;;4.07;;
31087;SDS011;17745;55.914;37.554;2023-03-21T14:51:47;8.20;;;4.65;;
31087;SDS011;17745;55.914;37.554;2023-03-21T14:54:17;8.55;;;4.75;;
31087;SDS011;17745;55.914;37.554;2023-03-21T14:56:49;6.72;;;4.03;;
31087;SDS011;17745;55.914;37.554;2023-03-21T14:59:22;11.63;;;4.75;;
31087;SDS011;17745;55.914;37.554;2023-03-21T15:02:02;7.20;;;4.07;;
31087;SDS011;17745;55.914;37.554;2023-03-21T15:04:33;10.05;;;5.43;;
31087;SDS011;17745;55.914;37.554;2023-03-21T15:07:01;10.93;;;4.32;;
31087;SDS011;17745;55.914;37.554;2023-03-21T15:09:32;10.80;;;4.62;;
31087;SDS011;17745;55.914;37.554;2023-03-21T15:12:07;9.35;;;4.50;;
31087;SDS011;17745;55.914;37.554;2023-03-21T15:14:39;9.00;;;4.60;;
31087;SDS011;17745;55.914;37.554;2023-03-21T15:17:08;16.30;;;5.00;;
31087;SDS011;17745;55.914;37.554;2023-03-21T15:19:39;9.00;;;4.25;;
31087;SDS011;17745;55.914;37.554;2023-03-21T15:22:15;13.30;;;5.37;;
31087;SDS011;17745;55.914;37.554;2023-03-21T15:24:50;7.60;;;3.95;;
31087;SDS011;17745;55.914;37.554;2023-03-21T15:27:29;7.25;;;3.75;;
31087;SDS011;17745;55.914;37.554;2023-03-21T15:30:02;8.07;;;4.57;;
31087;SDS011;17745;55.914;37.554;2023-03-21T15:32:35;9.60;;;4.32;;
31087;SDS011;17745;55.914;37.554;2023-03-21T15:35:14;7.65;;;4.25;;
31087;SDS011;17745;55.914;37.554;2023-03-21T15:37:54;13.43;;;4.05;;
31087;SDS011;17745;55.914;37.554;2023-03-21T15:40:29;13.60;;;4.85;;
31087;SDS011;17745;55.914;37.554;2023-03-21T15:43:14;12.07;;;5.10;;
31087;SDS011;17745;55.914;37.554;2023-03-21T15:45:48;10.52;;;5.12;;
31087;SDS011;17745;55.914;37.554;2023-03-21T15:48:20;8.40;;;4.47;;
31087;SDS011;17745;55.914;37.554;2023-03-21T15:50:58;11.48;;;5.20;;
31087;SDS011;17745;55.914;37.554;2023-03-21T15:53:34;11.20;;;4.72;;
31087;SDS011;17745;55.914;37.554;2023-03-21T15:56:09;14.70;;;5.57;;
31087;SDS011;17745;55.914;37.554;2023-03-21T15:58:53;12.00;;;5.32;;
31087;SDS011;17745;55.914;37.554;2023-03-21T16:01:31;13.13;;;5.10;;
31087;SDS011;17745;55.914;37.554;2023-03-21T16:04:05;12.35;;;4.93;;
31087;SDS011;17745;55.914;37.554;2023-03-21T16:06:37;12.57;;;5.57;;